RJAN(METAR)
05/27 16:00
RJAN 270700Z 26010KT 9999 FEW025 SCTXXX 24/18 Q1010 RMK A2985=
戻る
トップページへ戻る
IMOC Co,.Ltd.